Cap-Chat, Canada
Current Conditions -  °F | °C
As of 4:00 AM on Monday 20 Oct 2014 (Local Time) from CYBC Reporting Station
Overcast Overcast  
Wind Chill: 31°   Ceiling: 7500
Heat Index: 37°   Visibility: 9mi
Dew Point: 30°   Wind: 8mph
Humidity: 75%   Direction: 300°WNW
Pressure: 29.66"   Gusts: NA
Location:  49.08°N, 66.68°W
Report Text: CYBC 200800Z AUTO 30007KT 9SM OVC075 03/M01 A2966 RMK SLP045
Loading
Personal Weather Stations






























Interactive Weather Map
Tropical Storm Tracking
New forecast layout! Learn more

10-Day Weather Forecast

Advertisements
Track Severe Weather on mobile